Time;durP1;ratioP1;P1;durP2;ratioP2;P2;SDS_P1;SDS_P2;PMS_P1;PMS_P2;Temp;Humidity;BMP_temperature;BMP_pressure;BME280_temperature;BME280_humidity;BME280_pressure;Samples;Min_cycle;Max_cycle;Signal;HPM_P1;HPM_P2
2023/10/24 00:01:02;;;;;;;;;9.67;9.00;;;;;12.10;100.00;100299.44;5056576;28;50629;-79
2023/10/24 00:03:28;;;;;;;;;8.00;8.00;;;;;12.38;100.00;100341.00;5035239;28;45417;-79
2023/10/24 00:05:53;;;;;;;;;9.00;8.67;;;;;12.43;100.00;100352.22;5041284;28;45356;-79
2023/10/24 00:08:21;;;;;;;;;10.00;9.33;;;;;12.23;100.00;100308.34;5031608;28;45363;-78
2023/10/24 00:10:46;;;;;;;;;8.00;8.00;;;;;12.46;100.00;100347.56;5055807;28;45551;-78
2023/10/24 00:13:12;;;;;;;;;9.00;7.67;;;;;12.38;100.00;100335.72;5059929;28;47097;-79
2023/10/24 00:15:37;;;;;;;;;8.00;8.00;;;;;12.42;100.00;100342.53;5043010;28;45394;-78
2023/10/24 00:18:08;;;;;;;;;9.00;9.00;;;;;12.42;100.00;100311.56;5049462;28;45295;-78
2023/10/24 00:20:34;;;;;;;;;7.33;7.33;;;;;12.52;100.00;100333.91;5067293;28;45307;-78
2023/10/24 00:22:59;;;;;;;;;10.67;9.33;;;;;12.46;100.00;100310.44;5063234;28;45288;-78
2023/10/24 00:25:24;;;;;;;;;9.00;9.00;;;;;12.55;100.00;100319.59;5049278;28;45660;-78
2023/10/24 00:27:50;;;;;;;;;9.00;9.00;;;;;12.52;100.00;100314.50;5046222;28;45743;-79
2023/10/24 00:30:17;;;;;;;;;9.33;8.33;;;;;12.48;100.00;100318.28;5047198;28;54494;-79
2023/10/24 00:32:43;;;;;;;;;7.67;6.00;;;;;12.55;100.00;100324.91;5051987;28;45374;-80
2023/10/24 00:35:08;;;;;;;;;10.00;8.67;;;;;12.59;100.00;100328.22;5055563;28;45487;-80
2023/10/24 00:37:33;;;;;;;;;10.00;7.00;;;;;12.61;100.00;100335.13;5053661;28;45492;-79
2023/10/24 00:39:59;;;;;;;;;9.33;8.33;;;;;12.62;100.00;100326.22;5051468;28;53754;-80
2023/10/24 00:42:24;;;;;;;;;7.67;7.67;;;;;12.61;100.00;100323.66;5070935;28;45529;-79
2023/10/24 00:44:49;;;;;;;;;7.33;7.33;;;;;12.64;100.00;100334.06;5045869;28;45440;-80
2023/10/24 00:47:15;;;;;;;;;11.00;8.00;;;;;12.67;100.00;100334.75;5040973;28;50252;-80
2023/10/24 00:49:41;;;;;;;;;11.67;10.67;;;;;12.67;100.00;100329.44;5033335;28;47854;-80
2023/10/24 00:52:06;;;;;;;;;8.33;8.00;;;;;12.56;100.00;100305.41;5048650;28;45273;-80
2023/10/24 00:54:34;;;;;;;;;10.00;10.00;;;;;12.61;100.00;100319.22;5026934;28;45422;-79
2023/10/24 00:57:01;;;;;;;;;11.67;8.67;;;;;12.64;100.00;100318.16;5059069;28;45285;-80
2023/10/24 00:59:27;;;;;;;;;9.00;7.67;;;;;12.70;100.00;100328.38;5051729;28;45573;-80
2023/10/24 01:01:53;;;;;;;;;12.00;9.67;;;;;12.68;100.00;100320.53;5058822;28;45395;-79
2023/10/24 01:04:20;;;;;;;;;10.00;10.00;;;;;12.66;100.00;100311.84;5045480;28;45610;-80
2023/10/24 01:06:46;;;;;;;;;10.67;10.67;;;;;12.73;100.00;100314.94;5056570;28;45285;-80
2023/10/24 01:09:11;;;;;;;;;9.67;8.67;;;;;12.67;100.00;100294.94;5051037;28;48074;-79
2023/10/24 01:11:37;;;;;;;;;9.33;9.33;;;;;12.75;100.00;100308.59;5049174;28;45451;-80
2023/10/24 01:14:03;;;;;;;;;12.33;11.67;;;;;12.69;100.00;100295.72;5069685;28;45612;-80
2023/10/24 01:16:31;;;;;;;;;11.67;10.00;;;;;12.69;100.00;100294.84;5044415;28;45471;-79
2023/10/24 01:18:57;;;;;;;;;11.33;10.00;;;;;12.74;100.00;100301.56;5051791;28;45471;-80
2023/10/24 01:21:22;;;;;;;;;10.67;10.67;;;;;12.66;100.00;100293.25;5056577;28;45308;-79
2023/10/24 01:23:47;;;;;;;;;13.00;10.67;;;;;12.75;100.00;100310.38;5072922;28;45387;-79
2023/10/24 01:26:16;;;;;;;;;11.33;11.00;;;;;12.74;100.00;100306.88;5058703;28;45355;-80
2023/10/24 01:28:41;;;;;;;;;10.67;10.67;;;;;12.77;100.00;100309.31;5041260;28;46622;-79
2023/10/24 01:31:07;;;;;;;;;14.67;11.33;;;;;12.74;100.00;100308.66;5054804;28;45256;-79
2023/10/24 01:33:32;;;;;;;;;11.33;11.33;;;;;12.77;100.00;100314.63;5056943;28;45551;-79
2023/10/24 01:35:57;;;;;;;;;10.67;10.67;;;;;12.73;100.00;100310.47;5040301;28;45558;-80
2023/10/24 01:38:22;;;;;;;;;12.33;10.33;;;;;12.78;100.00;100310.19;5064729;28;50015;-79
2023/10/24 01:40:48;;;;;;;;;10.67;10.67;;;;;12.75;100.00;100297.97;5050085;28;45242;-80
2023/10/24 01:43:13;;;;;;;;;10.67;9.67;;;;;12.86;100.00;100322.00;5047121;28;45281;-80
2023/10/24 01:45:38;;;;;;;;;12.00;11.33;;;;;12.80;100.00;100316.22;5077780;28;45436;-80
2023/10/24 01:48:06;;;;;;;;;12.33;12.33;;;;;12.85;100.00;100315.00;5057801;28;45202;-80
2023/10/24 01:50:32;;;;;;;;;11.00;11.00;;;;;12.79;100.00;100288.88;5068418;28;45545;-79
2023/10/24 01:52:58;;;;;;;;;12.67;10.67;;;;;12.86;100.00;100295.47;5060621;28;45399;-80
2023/10/24 01:55:23;;;;;;;;;11.67;11.67;;;;;12.87;100.00;100288.34;5065231;28;45630;-80
2023/10/24 01:57:49;;;;;;;;;13.00;13.00;;;;;12.79;100.00;100283.56;5061603;28;45483;-79
2023/10/24 02:00:15;;;;;;;;;13.67;12.67;;;;;12.77;100.00;100273.97;5056781;28;45589;-79
2023/10/24 02:02:41;;;;;;;;;14.67;11.67;;;;;12.83;100.00;100289.50;5051362;28;45292;-79
2023/10/24 02:05:06;;;;;;;;;13.00;11.33;;;;;12.93;100.00;100298.56;5074955;28;45218;-79
2023/10/24 02:07:32;;;;;;;;;13.00;13.00;;;;;12.79;100.00;100269.44;5061361;28;46452;-79
2023/10/24 02:09:57;;;;;;;;;15.00;13.67;;;;;12.89;100.00;100283.81;5055487;28;45362;-80
2023/10/24 02:12:24;;;;;;;;;10.67;10.67;;;;;12.90;100.00;100283.69;5066246;28;45382;-79
2023/10/24 02:14:49;;;;;;;;;14.00;13.00;;;;;12.75;100.00;100257.31;5046242;28;45488;-80
2023/10/24 02:17:14;;;;;;;;;13.33;12.00;;;;;12.96;100.00;100296.56;5062004;28;45668;-79
2023/10/24 02:19:40;;;;;;;;;12.00;12.00;;;;;12.87;100.00;100273.28;5049389;28;45311;-80
2023/10/24 02:22:05;;;;;;;;;15.00;12.33;;;;;12.96;100.00;100285.94;5074868;27;53129;-80
2023/10/24 02:24:31;;;;;;;;;11.00;10.00;;;;;12.98;100.00;100289.38;5061449;28;45528;-79
2023/10/24 02:26:56;;;;;;;;;12.67;12.67;;;;;12.99;100.00;100287.53;5061367;28;45620;-80
2023/10/24 02:29:22;;;;;;;;;13.00;12.00;;;;;12.99;100.00;100293.72;5042192;28;45474;-79
2023/10/24 02:31:47;;;;;;;;;13.00;11.00;;;;;12.90;100.00;100274.88;5061353;28;45335;-79
2023/10/24 02:34:12;;;;;;;;;14.67;11.67;;;;;12.85;100.00;100269.88;5063289;28;45372;-80
2023/10/24 02:36:38;;;;;;;;;12.33;12.33;;;;;13.00;100.00;100287.47;5049716;28;45884;-79
2023/10/24 02:39:03;;;;;;;;;11.00;11.00;;;;;13.01;100.00;100293.63;5065698;28;45447;-79
2023/10/24 02:41:28;;;;;;;;;10.33;10.33;;;;;12.88;100.00;100259.06;5063994;28;45357;-80
2023/10/24 02:43:54;;;;;;;;;12.00;9.00;;;;;12.99;100.00;100277.78;5074092;28;45670;-79
2023/10/24 02:46:19;;;;;;;;;11.33;11.33;;;;;12.88;100.00;100268.84;5042732;28;47111;-79
2023/10/24 02:48:45;;;;;;;;;12.00;10.67;;;;;12.82;100.00;100251.50;5061911;28;51085;-79
2023/10/24 02:51:10;;;;;;;;;13.33;12.33;;;;;12.86;100.00;100260.13;5059352;28;45343;-80
2023/10/24 02:53:35;;;;;;;;;13.33;13.33;;;;;13.05;100.00;100281.88;5042750;28;45465;-80
2023/10/24 02:56:04;;;;;;;;;15.33;12.00;;;;;13.06;100.00;100287.06;5078524;28;53708;-79
2023/10/24 02:58:30;;;;;;;;;8.33;8.00;;;;;13.05;100.00;100276.56;5054465;28;45314;-80
2023/10/24 03:01:03;;;;;;;;;12.00;10.67;;;;;12.97;100.00;100261.13;5077471;28;45497;-79
2023/10/24 03:03:29;;;;;;;;;10.67;10.33;;;;;12.98;100.00;100260.19;5058405;28;45328;-79
2023/10/24 03:05:54;;;;;;;;;10.00;9.00;;;;;13.06;100.00;100271.13;5059636;28;45319;-80
2023/10/24 03:08:19;;;;;;;;;12.67;9.67;;;;;12.97;100.00;100247.00;5053481;28;45977;-80
2023/10/24 03:10:45;;;;;;;;;11.00;9.00;;;;;13.07;100.00;100259.56;5072974;28;52585;-80
2023/10/24 03:13:10;;;;;;;;;13.00;10.00;;;;;13.06;100.00;100268.47;5043394;28;45624;-80
2023/10/24 03:15:35;;;;;;;;;14.00;12.67;;;;;13.07;100.00;100261.38;5060533;28;45448;-80
2023/10/24 03:18:01;;;;;;;;;13.33;11.33;;;;;13.13;100.00;100273.41;5073120;28;48286;-80
2023/10/24 03:20:27;;;;;;;;;10.33;10.00;;;;;13.08;100.00;100263.06;5054121;28;45534;-79
2023/10/24 03:22:53;;;;;;;;;13.00;11.33;;;;;13.12;100.00;100269.06;5043285;28;45797;-78
2023/10/24 03:25:19;;;;;;;;;13.00;11.33;;;;;12.99;100.00;100248.59;5044626;28;45730;-79
2023/10/24 03:27:44;;;;;;;;;11.00;11.00;;;;;13.12;100.00;100261.94;5023009;28;45257;-79
2023/10/24 03:30:09;;;;;;;;;11.00;11.00;;;;;13.14;100.00;100270.66;5059666;28;46592;-79
2023/10/24 03:32:35;;;;;;;;;10.00;9.00;;;;;13.17;100.00;100264.28;5063201;28;45478;-79
2023/10/24 03:35:00;;;;;;;;;9.00;8.00;;;;;13.12;100.00;100263.75;5074777;27;48762;-79
2023/10/24 03:37:25;;;;;;;;;12.00;10.33;;;;;13.16;100.00;100271.41;5053675;28;45249;-78
2023/10/24 03:39:51;;;;;;;;;11.00;9.00;;;;;13.10;100.00;100276.25;5036651;28;45436;-78
2023/10/24 03:42:16;;;;;;;;;10.00;9.00;;;;;13.04;100.00;100269.53;5057847;28;45520;-78
2023/10/24 03:44:41;;;;;;;;;12.00;10.00;;;;;13.10;100.00;100270.97;5042894;28;47693;-78
2023/10/24 03:47:07;;;;;;;;;10.00;9.33;;;;;13.11;100.00;100272.66;5039883;28;45299;-78
2023/10/24 03:49:33;;;;;;;;;12.00;10.00;;;;;13.10;100.00;100271.81;5026770;28;45497;-78
2023/10/24 03:51:59;;;;;;;;;8.33;7.00;;;;;13.17;100.00;100275.78;5047002;28;45205;-79
2023/10/24 03:54:26;;;;;;;;;13.67;11.00;;;;;13.12;100.00;100267.25;5030569;28;45791;-78
2023/10/24 03:56:51;;;;;;;;;9.33;9.00;;;;;13.13;100.00;100270.75;5030460;28;45467;-78
2023/10/24 03:59:16;;;;;;;;;8.33;8.00;;;;;13.15;100.00;100268.88;5045439;28;46302;-77
2023/10/24 04:01:42;;;;;;;;;10.67;9.00;;;;;13.08;100.00;100260.41;5042789;28;48662;-78
2023/10/24 04:04:07;;;;;;;;;11.00;9.67;;;;;13.04;100.00;100254.47;5064863;28;46723;-78
2023/10/24 04:06:36;;;;;;;;;9.67;7.67;;;;;13.16;100.00;100279.38;5059423;28;45458;-78
2023/10/24 04:09:05;;;;;;;;;10.00;9.00;;;;;13.15;100.00;100276.81;5050628;28;45439;-78
2023/10/24 04:11:32;;;;;;;;;8.33;8.00;;;;;13.07;100.00;100264.88;5040415;28;45422;-78
2023/10/24 04:13:58;;;;;;;;;11.33;7.00;;;;;13.12;100.00;100272.53;5051301;28;45680;-78
2023/10/24 04:16:23;;;;;;;;;7.67;7.67;;;;;13.03;100.00;100250.09;5058690;28;45506;-78
2023/10/24 04:18:48;;;;;;;;;8.33;7.33;;;;;12.97;100.00;100245.19;5066433;28;45464;-79
2023/10/24 04:21:15;;;;;;;;;7.00;7.00;;;;;13.08;100.00;100260.41;5057785;28;45395;-78
2023/10/24 04:23:40;;;;;;;;;8.00;7.67;;;;;13.11;100.00;100264.69;5056994;28;46105;-79
2023/10/24 04:26:06;;;;;;;;;8.00;6.00;;;;;13.04;100.00;100256.25;5067563;28;45271;-78
2023/10/24 04:28:31;;;;;;;;;6.67;6.67;;;;;12.95;100.00;100244.47;5045989;28;45396;-79
2023/10/24 04:30:56;;;;;;;;;8.67;8.33;;;;;13.00;100.00;100257.41;5061153;28;45300;-79
2023/10/24 04:33:22;;;;;;;;;7.00;7.00;;;;;13.09;100.00;100275.41;5036484;28;47294;-77
2023/10/24 04:35:49;;;;;;;;;9.33;9.33;;;;;12.91;100.00;100247.41;5052226;28;45479;-78
2023/10/24 04:38:15;;;;;;;;;8.00;6.33;;;;;13.04;100.00;100264.22;5054285;28;45703;-78
2023/10/24 04:40:40;;;;;;;;;7.00;7.00;;;;;13.06;100.00;100263.16;5072691;28;45293;-78
2023/10/24 04:43:06;;;;;;;;;10.00;10.00;;;;;13.01;100.00;100253.81;5053979;28;46175;-79
2023/10/24 04:45:32;;;;;;;;;6.00;5.67;;;;;13.06;100.00;100267.63;5035202;28;45446;-78
2023/10/24 04:48:02;;;;;;;;;5.33;5.33;;;;;13.06;100.00;100275.56;5044836;28;45346;-79
2023/10/24 04:50:27;;;;;;;;;7.00;7.00;;;;;12.99;100.00;100269.81;5042551;28;45384;-78
2023/10/24 04:52:54;;;;;;;;;5.33;5.33;;;;;12.87;100.00;100249.41;5051267;28;46306;-79
2023/10/24 04:55:19;;;;;;;;;5.67;5.67;;;;;12.99;100.00;100253.91;5046409;28;45962;-79
2023/10/24 04:57:44;;;;;;;;;4.33;4.33;;;;;13.03;100.00;100252.75;5039875;28;45669;-78
2023/10/24 05:00:13;;;;;;;;;6.67;6.00;;;;;13.02;100.00;100268.78;5064464;28;45642;-78
2023/10/24 05:02:39;;;;;;;;;4.33;3.00;;;;;13.03;100.00;100270.47;5034954;28;45350;-78
2023/10/24 05:05:05;;;;;;;;;5.33;5.33;;;;;12.89;100.00;100239.53;5054712;28;45368;-78
2023/10/24 05:07:31;;;;;;;;;5.33;5.33;;;;;13.02;100.00;100263.47;5043581;28;45406;-79
2023/10/24 05:09:56;;;;;;;;;8.00;6.67;;;;;13.05;100.00;100260.63;5051601;28;45356;-79
2023/10/24 05:12:21;;;;;;;;;7.67;6.67;;;;;13.05;100.00;100269.41;5040224;28;45495;-80
2023/10/24 05:14:47;;;;;;;;;2.33;2.33;;;;;12.93;100.00;100246.34;5025476;28;45391;-79
2023/10/24 05:17:13;;;;;;;;;7.67;5.00;;;;;13.00;100.00;100250.28;5037275;28;45255;-79
2023/10/24 05:19:39;;;;;;;;;6.67;5.67;;;;;13.05;100.00;100247.34;5032252;28;45387;-78
2023/10/24 05:22:04;;;;;;;;;5.00;5.00;;;;;13.03;100.00;100266.03;5042242;28;46459;-79
2023/10/24 05:24:29;;;;;;;;;5.67;5.67;;;;;13.06;100.00;100267.63;5031153;28;45349;-79
2023/10/24 05:26:55;;;;;;;;;5.33;5.33;;;;;12.89;100.00;100226.25;5039514;28;45677;-78
2023/10/24 05:29:21;;;;;;;;;5.00;5.00;;;;;12.95;100.00;100243.59;5038149;28;45447;-79
2023/10/24 05:31:46;;;;;;;;;5.00;5.00;;;;;12.90;100.00;100233.28;5037727;28;45476;-79
2023/10/24 05:34:11;;;;;;;;;7.33;5.67;;;;;12.82;100.00;100205.53;5027770;28;45457;-79
2023/10/24 05:36:37;;;;;;;;;5.00;4.67;;;;;13.02;100.00;100237.75;5040719;28;48709;-79
2023/10/24 05:39:02;;;;;;;;;6.33;5.67;;;;;13.03;100.00;100250.09;5044450;28;49980;-79
2023/10/24 05:41:27;;;;;;;;;6.33;6.00;;;;;12.93;100.00;100235.72;5039443;28;45901;-79
2023/10/24 05:43:53;;;;;;;;;3.33;3.33;;;;;12.86;100.00;100230.94;5054690;28;45656;-79
2023/10/24 05:46:18;;;;;;;;;4.67;4.67;;;;;13.00;100.00;100250.28;5045585;28;45491;-79
2023/10/24 05:48:44;;;;;;;;;5.00;5.00;;;;;13.03;100.00;100249.25;5038327;28;45414;-79
2023/10/24 05:51:12;;;;;;;;;6.00;6.00;;;;;13.03;100.00;100260.72;5035670;28;45546;-79
2023/10/24 05:53:37;;;;;;;;;4.33;4.00;;;;;12.97;100.00;100245.19;5032258;28;45387;-79
2023/10/24 05:56:03;;;;;;;;;7.00;7.00;;;;;12.98;100.00;100256.66;5037968;28;45428;-79
2023/10/24 05:58:28;;;;;;;;;8.00;6.33;;;;;13.00;100.00;100260.91;5023688;28;45479;-79
2023/10/24 06:00:54;;;;;;;;;7.00;7.00;;;;;13.03;100.00;100257.19;5036662;28;47945;-78
2023/10/24 06:03:19;;;;;;;;;5.67;5.67;;;;;13.04;100.00;100251.81;5065749;28;45342;-79
2023/10/24 06:05:49;;;;;;;;;7.00;7.00;;;;;13.07;100.00;100259.56;5042909;28;45305;-79
2023/10/24 06:08:15;;;;;;;;;8.00;7.00;;;;;12.98;100.00;100254.88;5033652;28;45412;-79
2023/10/24 06:10:40;;;;;;;;;7.67;6.00;;;;;13.09;100.00;100267.44;5037402;28;46025;-79
2023/10/24 06:13:06;;;;;;;;;8.00;6.33;;;;;13.01;100.00;100267.94;5054029;28;45335;-79
2023/10/24 06:15:31;;;;;;;;;7.00;7.00;;;;;13.11;100.00;100278.84;5049479;28;45276;-79
2023/10/24 06:17:56;;;;;;;;;6.00;6.00;;;;;13.06;100.00;100276.44;5024044;28;45498;-78
2023/10/24 06:20:22;;;;;;;;;7.00;7.00;;;;;13.13;100.00;100284.03;5038314;28;46332;-79
2023/10/24 06:22:47;;;;;;;;;7.00;5.00;;;;;13.03;100.00;100271.34;5039627;28;45328;-79
2023/10/24 06:25:12;;;;;;;;;6.00;5.00;;;;;13.11;100.00;100285.94;5048812;28;50301;-79
2023/10/24 06:27:38;;;;;;;;;8.33;7.67;;;;;13.10;100.00;100289.53;5040133;28;45458;-79
2023/10/24 06:30:04;;;;;;;;;5.33;5.00;;;;;12.97;100.00;100277.03;5037958;28;45428;-78
2023/10/24 06:32:30;;;;;;;;;7.33;7.33;;;;;13.08;100.00;100300.25;5031864;28;45353;-79
2023/10/24 06:34:55;;;;;;;;;6.67;5.33;;;;;12.88;100.00;100274.13;5020388;28;45377;-79
2023/10/24 06:37:20;;;;;;;;;10.00;5.33;;;;;12.99;100.00;100301.69;5016926;28;45362;-79
2023/10/24 06:39:47;;;;;;;;;6.00;6.00;;;;;12.84;100.00;100273.50;5040312;28;49481;-79
2023/10/24 06:42:12;;;;;;;;;7.33;6.67;;;;;13.01;100.00;100307.75;5054156;28;45344;-79
2023/10/24 06:44:37;;;;;;;;;7.00;5.00;;;;;12.97;100.00;100303.59;5046081;28;45369;-79
2023/10/24 06:47:03;;;;;;;;;5.33;5.33;;;;;12.79;100.00;100274.75;5045615;28;53202;-79
2023/10/24 06:49:28;;;;;;;;;6.00;6.00;;;;;12.97;100.00;100303.59;5034834;28;45387;-78
2023/10/24 06:51:53;;;;;;;;;7.00;7.00;;;;;12.84;100.00;100297.38;5021957;28;45293;-79
2023/10/24 06:54:19;;;;;;;;;7.33;7.33;;;;;12.87;100.00;100296.31;5040324;28;47185;-78
2023/10/24 06:56:44;;;;;;;;;6.67;6.00;;;;;12.90;100.00;100312.91;5053783;28;45564;-78
2023/10/24 06:59:09;;;;;;;;;6.00;4.67;;;;;12.91;100.00;100327.88;5030464;28;47683;-79
2023/10/24 07:01:34;;;;;;;;;6.67;6.67;;;;;12.81;100.00;100310.84;5030319;28;53234;-79
2023/10/24 07:04:00;;;;;;;;;12.67;9.00;;;;;12.81;100.00;100310.84;5010741;28;47172;-78
2023/10/24 07:06:25;;;;;;;;;7.00;7.00;;;;;12.72;100.00;100299.97;5037742;28;53862;-79
2023/10/24 07:08:52;;;;;;;;;7.67;6.00;;;;;12.86;100.00;100339.75;5040659;28;45803;-78
2023/10/24 07:11:17;;;;;;;;;7.00;6.67;;;;;12.65;100.00;100309.25;5045351;28;45582;-78
2023/10/24 07:13:43;;;;;;;;;6.00;6.00;;;;;12.71;100.00;100322.13;5055765;28;45506;-78
2023/10/24 07:16:16;;;;;;;;;7.33;7.00;;;;;12.69;100.00;100342.63;5046724;28;45505;-78
2023/10/24 07:18:42;;;;;;;;;7.00;5.00;;;;;12.76;100.00;100351.91;5058407;28;46375;-78
2023/10/24 07:21:07;;;;;;;;;7.00;6.67;;;;;12.53;100.00;100330.28;5058048;28;45368;-78
2023/10/24 07:23:33;;;;;;;;;4.33;4.33;;;;;12.69;100.00;100359.38;5060875;28;45285;-78
2023/10/24 07:25:58;;;;;;;;;5.00;4.00;;;;;12.64;100.00;100358.81;5036405;28;45396;-79
2023/10/24 07:28:24;;;;;;;;;6.67;5.67;;;;;12.54;100.00;100355.88;5046398;28;47341;-78
2023/10/24 07:30:51;;;;;;;;;6.00;4.00;;;;;12.58;100.00;100367.16;5049409;28;45577;-77
2023/10/24 07:33:25;;;;;;;;;6.67;4.00;;;;;12.53;100.00;100371.91;5065786;28;45436;-78
2023/10/24 07:35:51;;;;;;;;;6.00;5.00;;;;;12.48;100.00;100363.38;5052004;28;45622;-78
2023/10/24 07:38:19;;;;;;;;;6.00;5.67;;;;;12.56;100.00;100374.38;5045055;28;47813;-77
2023/10/24 07:41:16;;;;;;;;;7.00;4.00;;;;;12.60;100.00;100359.13;5038379;28;45316;-77
2023/10/24 07:43:52;;;;;;;;;6.67;5.00;;;;;12.10;100.00;100299.44;5034820;28;45519;-78
2023/10/24 07:46:32;;;;;;;;;5.00;4.00;;;;;12.23;100.00;100303.06;5028609;28;45533;-78
2023/10/24 07:49:05;;;;;;;;;7.33;6.67;;;;;12.27;100.00;100309.03;5031823;28;45691;-78
2023/10/24 07:51:51;;;;;;;;;4.33;2.33;;;;;12.64;100.00;100376.53;5036706;28;45376;-78
2023/10/24 07:54:22;;;;;;;;;5.33;5.33;;;;;12.43;100.00;100344.25;5072382;28;45549;-77
2023/10/24 07:56:48;;;;;;;;;5.67;4.67;;;;;12.46;100.00;100342.25;5033375;28;45570;-78
2023/10/24 07:59:13;;;;;;;;;4.33;4.00;;;;;12.67;100.00;100377.19;5038439;28;51346;-78
2023/10/24 08:01:38;;;;;;;;;4.67;4.67;;;;;12.17;100.00;100297.28;5060993;28;45416;-79
2023/10/24 08:04:04;;;;;;;;;3.67;3.67;;;;;12.66;100.00;100369.34;5030587;28;45415;-79
2023/10/24 08:06:29;;;;;;;;;3.67;3.67;;;;;12.62;100.00;100373.97;5038675;28;45449;-78
2023/10/24 08:08:55;;;;;;;;;5.33;4.33;;;;;12.71;100.00;100376.06;5034103;28;47026;-78
2023/10/24 08:11:20;;;;;;;;;3.67;3.67;;;;;12.65;100.00;100363.19;5057530;28;45369;-78
2023/10/24 08:13:45;;;;;;;;;4.67;4.67;;;;;12.64;100.00;100364.13;5035134;28;46945;-79
2023/10/24 08:16:13;;;;;;;;;2.33;2.33;;;;;12.63;100.00;100357.09;5055791;28;45466;-78
2023/10/24 08:18:40;;;;;;;;;4.67;4.33;;;;;12.76;100.00;100387.22;5059036;28;46186;-78
2023/10/24 08:21:07;;;;;;;;;4.00;4.00;;;;;12.78;100.00;100385.34;5051111;28;45464;-78
2023/10/24 08:23:32;;;;;;;;;4.00;4.00;;;;;12.81;100.00;100386.94;5067351;28;45469;-79
2023/10/24 08:25:57;;;;;;;;;3.00;3.00;;;;;12.76;100.00;100371.28;5055998;28;45633;-78
2023/10/24 08:28:23;;;;;;;;;5.00;5.00;;;;;12.82;100.00;100386.00;5058691;28;45512;-79
2023/10/24 08:30:48;;;;;;;;;6.00;6.00;;;;;12.90;100.00;100389.00;5027530;28;45483;-78
2023/10/24 08:33:15;;;;;;;;;4.00;4.00;;;;;12.94;100.00;100398.50;5054416;28;45392;-79
2023/10/24 08:35:41;;;;;;;;;4.33;4.33;;;;;12.78;100.00;100347.34;5056399;28;45618;-79
2023/10/24 08:38:06;;;;;;;;;8.33;7.00;;;;;12.91;100.00;100369.50;5035181;28;46432;-79
2023/10/24 08:40:32;;;;;;;;;6.67;5.67;;;;;12.95;100.00;100368.34;5058604;28;45628;-79
2023/10/24 08:42:57;;;;;;;;;5.00;5.00;;;;;13.08;100.00;100401.13;5058109;28;45506;-79
2023/10/24 08:45:23;;;;;;;;;3.00;3.00;;;;;13.12;100.00;100385.91;5032989;28;45407;-78
2023/10/24 08:47:49;;;;;;;;;6.33;4.00;;;;;13.18;100.00;100398.78;5057014;28;46486;-79
2023/10/24 08:50:15;;;;;;;;;3.33;3.33;;;;;13.10;100.00;100369.19;5034799;28;45496;-79
2023/10/24 08:52:40;;;;;;;;;5.00;2.00;;;;;13.16;100.00;100361.69;5052583;28;45579;-79
2023/10/24 08:55:06;;;;;;;;;5.00;5.00;;;;;13.38;100.00;100393.03;5031181;28;46231;-79
2023/10/24 08:57:39;;;;;;;;;3.00;2.67;;;;;13.45;100.00;100391.66;5064509;28;45445;-79
2023/10/24 09:00:11;;;;;;;;;2.00;2.00;;;;;13.50;100.00;100389.56;5068260;28;45849;-79
2023/10/24 09:02:37;;;;;;;;;2.33;2.33;;;;;13.50;100.00;100387.75;5065292;28;45420;-79
2023/10/24 09:05:03;;;;;;;;;4.67;4.00;;;;;13.46;100.00;100382.75;5055136;28;45613;-79
2023/10/24 09:07:29;;;;;;;;;4.00;4.00;;;;;13.46;100.00;100375.63;5036465;28;45570;-79
2023/10/24 09:09:54;;;;;;;;;3.67;3.67;;;;;13.60;100.00;100395.13;5070193;28;45454;-79
2023/10/24 09:12:21;;;;;;;;;2.00;2.00;;;;;13.70;100.00;100404.19;5057581;28;45505;-79
2023/10/24 09:14:47;;;;;;;;;3.00;3.00;;;;;13.74;100.00;100405.69;5041284;28;45597;-79
2023/10/24 09:17:17;;;;;;;;;1.00;1.00;;;;;13.76;100.00;100401.97;5055811;28;46116;-80
2023/10/24 09:19:43;;;;;;;;;3.00;2.00;;;;;13.78;100.00;100407.16;5066975;28;45375;-80
2023/10/24 09:22:09;;;;;;;;;1.33;1.00;;;;;13.79;100.00;100399.09;5057999;28;45515;-80
2023/10/24 09:24:35;;;;;;;;;2.00;2.00;;;;;13.82;100.00;100406.88;5058606;28;45352;-81
2023/10/24 09:27:01;;;;;;;;;3.00;2.33;;;;;13.85;100.00;100413.78;5059445;28;45320;-80
2023/10/24 09:29:27;;;;;;;;;2.33;1.00;;;;;13.88;100.00;100411.78;5041410;28;45514;-82
2023/10/24 09:31:53;;;;;;;;;2.67;2.00;;;;;13.82;100.00;100398.91;5059575;28;45458;-81
2023/10/24 09:34:19;;;;;;;;;2.00;2.00;;;;;13.96;100.00;100416.59;5040188;28;45550;-81
2023/10/24 09:36:45;;;;;;;;;2.67;1.00;;;;;13.81;100.00;100388.34;5044555;28;45607;-86
2023/10/24 09:39:14;;;;;;;;;1.00;0.00;;;;;14.01;100.00;100412.66;5058428;28;45369;-84
2023/10/24 09:41:45;;;;;;;;;4.00;1.67;;;;;14.02;100.00;100406.41;5032504;28;45511;-83
2023/10/24 09:44:11;;;;;;;;;1.00;1.00;;;;;13.98;100.00;100396.91;5057550;28;46490;-83
2023/10/24 09:46:38;;;;;;;;;2.00;0.67;;;;;13.96;100.00;100382.03;5058323;28;46306;-83
2023/10/24 09:49:05;;;;;;;;;2.00;1.00;;;;;14.17;100.00;100401.81;5040855;28;45399;-83
2023/10/24 09:51:38;;;;;;;;;2.00;1.00;;;;;14.15;100.00;100409.06;5036358;28;45915;-83
2023/10/24 09:54:06;;;;;;;;;1.00;1.00;;;;;14.19;100.00;100391.94;5057033;28;45396;-83
2023/10/24 09:56:32;;;;;;;;;0.67;0.67;;;;;14.23;100.00;100406.75;5042621;28;47452;-83
2023/10/24 09:58:58;;;;;;;;;1.67;0.33;;;;;14.22;100.00;100398.88;5061790;28;45439;-83
2023/10/24 10:01:27;;;;;;;;;1.00;1.00;;;;;14.32;100.00;100411.44;5061479;28;45354;-83
2023/10/24 10:03:55;;;;;;;;;0.00;0.00;;;;;14.24;100.00;100395.13;5044595;28;45699;-82
2023/10/24 10:06:21;;;;;;;;;1.67;1.00;;;;;14.23;100.00;100381.97;5058036;28;46380;-83
2023/10/24 10:08:49;;;;;;;;;0.00;0.00;;;;;14.38;100.00;100407.53;5025268;28;45526;-82
2023/10/24 10:11:15;;;;;;;;;3.00;1.00;;;;;14.17;100.00;100371.75;5021351;28;46485;-83
2023/10/24 10:13:53;;;;;;;;;1.33;0.67;;;;;14.40;100.00;100386.97;5043475;28;45349;-83
2023/10/24 10:16:40;;;;;;;;;0.33;0.33;;;;;14.53;100.00;100409.97;5035040;28;45760;-82
2023/10/24 10:19:33;;;;;;;;;2.00;0.33;;;;;14.42;100.00;100393.91;5038413;28;45416;-81
2023/10/24 10:22:22;;;;;;;;;1.00;1.00;;;;;14.49;100.00;100394.34;5038834;28;45459;-81
2023/10/24 10:24:47;;;;;;;;;0.00;0.00;;;;;14.60;100.00;100418.38;5040631;28;45377;-80
2023/10/24 10:27:31;;;;;;;;;1.00;1.00;;;;;14.62;100.00;100411.16;5034716;28;46155;-81
2023/10/24 10:30:13;;;;;;;;;0.00;0.00;;;;;14.61;100.00;100404.13;5034712;28;45454;-82
2023/10/24 10:32:48;;;;;;;;;0.00;0.00;;;;;14.74;100.00;100412.94;5020189;28;45521;-81
2023/10/24 10:35:13;;;;;;;;;2.00;0.33;;;;;14.66;98.57;100387.84;5050775;28;45461;-79
2023/10/24 10:37:39;;;;;;;;;1.67;1.67;;;;;14.79;99.11;100410.78;5038487;28;45509;-79
2023/10/24 10:40:19;;;;;;;;;0.67;0.67;;;;;14.83;100.00;100416.75;5040616;28;45404;-79
2023/10/24 10:42:49;;;;;;;;;1.33;1.33;;;;;14.86;100.00;100412.06;5023083;28;45390;-78
2023/10/24 10:45:26;;;;;;;;;2.00;1.00;;;;;14.77;100.00;100374.59;5028614;28;45504;-78
2023/10/24 10:48:09;;;;;;;;;2.00;1.00;;;;;14.82;100.00;100375.13;5010046;28;46397;-78
2023/10/24 10:50:37;;;;;;;;;3.33;1.67;;;;;14.92;100.00;100389.50;5048136;28;45534;-79
2023/10/24 10:53:29;;;;;;;;;1.00;1.00;;;;;15.05;100.00;100390.31;5039284;28;45340;-79
2023/10/24 10:56:09;;;;;;;;;1.67;1.00;;;;;15.08;98.01;100382.09;5024157;28;45603;-79
2023/10/24 10:58:49;;;;;;;;;5.00;2.00;;;;;15.11;97.53;100390.72;5014370;28;47943;-78
2023/10/24 11:01:29;;;;;;;;;2.00;1.00;;;;;15.20;95.70;100391.00;5036249;28;45556;-77
2023/10/24 11:03:56;;;;;;;;;1.00;1.00;;;;;15.15;95.21;100366.53;5034802;28;45562;-77
2023/10/24 11:06:25;;;;;;;;;0.00;0.00;;;;;15.11;98.24;100372.09;5032414;28;45534;-78
2023/10/24 11:09:07;;;;;;;;;1.33;1.00;;;;;15.33;94.21;100406.00;5055834;28;45454;-76
2023/10/24 11:11:33;;;;;;;;;0.00;0.00;;;;;15.32;93.23;100392.78;5055724;28;45508;-77
2023/10/24 11:14:21;;;;;;;;;2.67;1.67;;;;;15.36;96.51;100399.59;5060495;28;45485;-79